sensor_id;sensor_type;location;lat;lon;timestamp;temperature;humidity
54006;DHT22;39919;38.160;-122.260;2022-10-16T00:02:16;19.00;83.10
54006;DHT22;39919;38.160;-122.260;2022-10-16T00:04:45;19.10;83.00
54006;DHT22;39919;38.160;-122.260;2022-10-16T00:07:16;19.00;82.90
54006;DHT22;39919;38.160;-122.260;2022-10-16T00:09:49;19.10;83.20
54006;DHT22;39919;38.160;-122.260;2022-10-16T00:12:18;19.10;83.30
54006;DHT22;39919;38.160;-122.260;2022-10-16T00:14:47;19.20;82.70
54006;DHT22;39919;38.160;-122.260;2022-10-16T00:17:20;19.20;82.60
54006;DHT22;39919;38.160;-122.260;2022-10-16T00:19:48;19.30;81.80
54006;DHT22;39919;38.160;-122.260;2022-10-16T00:22:20;19.40;80.20
54006;DHT22;39919;38.160;-122.260;2022-10-16T00:24:53;19.40;79.50
54006;DHT22;39919;38.160;-122.260;2022-10-16T00:27:22;19.40;78.70
54006;DHT22;39919;38.160;-122.260;2022-10-16T00:29:51;19.50;78.20
54006;DHT22;39919;38.160;-122.260;2022-10-16T00:32:20;19.50;78.00
54006;DHT22;39919;38.160;-122.260;2022-10-16T00:34:48;19.50;77.70
54006;DHT22;39919;38.160;-122.260;2022-10-16T00:37:16;19.60;77.70
54006;DHT22;39919;38.160;-122.260;2022-10-16T00:39:45;19.50;77.30
54006;DHT22;39919;38.160;-122.260;2022-10-16T00:42:15;19.60;76.90
54006;DHT22;39919;38.160;-122.260;2022-10-16T00:44:46;19.60;76.80
54006;DHT22;39919;38.160;-122.260;2022-10-16T00:47:17;19.50;76.50
54006;DHT22;39919;38.160;-122.260;2022-10-16T00:49:49;19.50;76.40
54006;DHT22;39919;38.160;-122.260;2022-10-16T00:52:18;19.50;76.50
54006;DHT22;39919;38.160;-122.260;2022-10-16T00:54:47;19.50;76.60
54006;DHT22;39919;38.160;-122.260;2022-10-16T00:57:19;19.40;76.60
54006;DHT22;39919;38.160;-122.260;2022-10-16T00:59:49;19.40;76.60
54006;DHT22;39919;38.160;-122.260;2022-10-16T01:02:19;19.40;76.60
54006;DHT22;39919;38.160;-122.260;2022-10-16T01:04:48;19.30;76.80
54006;DHT22;39919;38.160;-122.260;2022-10-16T01:07:22;19.30;76.90
54006;DHT22;39919;38.160;-122.260;2022-10-16T01:09:57;19.30;76.90
54006;DHT22;39919;38.160;-122.260;2022-10-16T01:12:33;19.20;76.90
54006;DHT22;39919;38.160;-122.260;2022-10-16T01:20:30;19.20;77.30
54006;DHT22;39919;38.160;-122.260;2022-10-16T01:23:04;19.10;77.30
54006;DHT22;39919;38.160;-122.260;2022-10-16T01:25:37;19.10;77.50
54006;DHT22;39919;38.160;-122.260;2022-10-16T01:28:09;19.00;77.70
54006;DHT22;39919;38.160;-122.260;2022-10-16T01:30:39;19.00;78.00
54006;DHT22;39919;38.160;-122.260;2022-10-16T01:33:08;19.00;78.20
54006;DHT22;39919;38.160;-122.260;2022-10-16T01:35:38;18.90;78.20
54006;DHT22;39919;38.160;-122.260;2022-10-16T01:38:10;18.90;78.10
54006;DHT22;39919;38.160;-122.260;2022-10-16T01:40:46;18.90;78.30
54006;DHT22;39919;38.160;-122.260;2022-10-16T01:43:27;18.80;78.40
54006;DHT22;39919;38.160;-122.260;2022-10-16T01:45:58;18.80;78.40
54006;DHT22;39919;38.160;-122.260;2022-10-16T01:48:30;18.80;78.60
54006;DHT22;39919;38.160;-122.260;2022-10-16T01:51:01;18.70;78.70
54006;DHT22;39919;38.160;-122.260;2022-10-16T01:53:31;18.70;78.90
54006;DHT22;39919;38.160;-122.260;2022-10-16T01:56:06;18.70;79.00
54006;DHT22;39919;38.160;-122.260;2022-10-16T01:58:37;18.70;79.10
54006;DHT22;39919;38.160;-122.260;2022-10-16T02:01:10;18.60;79.30
54006;DHT22;39919;38.160;-122.260;2022-10-16T02:03:40;18.60;79.50
54006;DHT22;39919;38.160;-122.260;2022-10-16T02:06:08;18.60;79.60
54006;DHT22;39919;38.160;-122.260;2022-10-16T02:08:37;18.60;79.70
54006;DHT22;39919;38.160;-122.260;2022-10-16T02:11:10;18.60;79.70
54006;DHT22;39919;38.160;-122.260;2022-10-16T02:13:41;18.60;79.70
54006;DHT22;39919;38.160;-122.260;2022-10-16T02:16:10;18.50;79.80
54006;DHT22;39919;38.160;-122.260;2022-10-16T02:18:42;18.50;79.80
54006;DHT22;39919;38.160;-122.260;2022-10-16T02:21:13;18.50;79.70
54006;DHT22;39919;38.160;-122.260;2022-10-16T02:23:45;18.40;79.80
54006;DHT22;39919;38.160;-122.260;2022-10-16T02:26:21;18.40;80.00
54006;DHT22;39919;38.160;-122.260;2022-10-16T02:28:58;18.40;80.10
54006;DHT22;39919;38.160;-122.260;2022-10-16T02:31:31;18.40;80.40
54006;DHT22;39919;38.160;-122.260;2022-10-16T02:34:00;18.40;80.60
54006;DHT22;39919;38.160;-122.260;2022-10-16T02:36:34;18.40;80.30
54006;DHT22;39919;38.160;-122.260;2022-10-16T02:39:05;18.40;80.00
54006;DHT22;39919;38.160;-122.260;2022-10-16T02:41:33;18.30;79.90
54006;DHT22;39919;38.160;-122.260;2022-10-16T02:44:05;18.30;80.30
54006;DHT22;39919;38.160;-122.260;2022-10-16T02:46:34;18.30;80.40
54006;DHT22;39919;38.160;-122.260;2022-10-16T02:49:05;18.30;80.50
54006;DHT22;39919;38.160;-122.260;2022-10-16T02:51:34;18.30;80.70
54006;DHT22;39919;38.160;-122.260;2022-10-16T02:54:04;18.30;81.00
54006;DHT22;39919;38.160;-122.260;2022-10-16T02:56:33;18.30;81.20
54006;DHT22;39919;38.160;-122.260;2022-10-16T02:59:10;18.30;81.00
54006;DHT22;39919;38.160;-122.260;2022-10-16T03:01:38;18.20;81.10
54006;DHT22;39919;38.160;-122.260;2022-10-16T03:04:08;18.20;81.00
54006;DHT22;39919;38.160;-122.260;2022-10-16T03:06:37;18.20;81.10
54006;DHT22;39919;38.160;-122.260;2022-10-16T03:09:05;18.20;81.40
54006;DHT22;39919;38.160;-122.260;2022-10-16T03:11:35;18.20;81.20
54006;DHT22;39919;38.160;-122.260;2022-10-16T03:14:03;18.20;81.20
54006;DHT22;39919;38.160;-122.260;2022-10-16T03:16:37;18.20;81.10
54006;DHT22;39919;38.160;-122.260;2022-10-16T03:19:05;18.20;81.00
54006;DHT22;39919;38.160;-122.260;2022-10-16T03:21:34;18.10;81.30
54006;DHT22;39919;38.160;-122.260;2022-10-16T03:24:02;18.10;81.20
54006;DHT22;39919;38.160;-122.260;2022-10-16T03:26:31;18.10;81.60
54006;DHT22;39919;38.160;-122.260;2022-10-16T03:29:00;18.10;81.70
54006;DHT22;39919;38.160;-122.260;2022-10-16T03:31:29;18.10;82.10
54006;DHT22;39919;38.160;-122.260;2022-10-16T03:34:00;18.10;82.60
54006;DHT22;39919;38.160;-122.260;2022-10-16T03:36:28;18.10;82.60
54006;DHT22;39919;38.160;-122.260;2022-10-16T03:38:57;18.10;82.70
54006;DHT22;39919;38.160;-122.260;2022-10-16T03:41:26;18.10;82.80
54006;DHT22;39919;38.160;-122.260;2022-10-16T03:43:54;18.10;82.70
54006;DHT22;39919;38.160;-122.260;2022-10-16T03:46:23;18.10;82.90
54006;DHT22;39919;38.160;-122.260;2022-10-16T03:48:52;18.10;82.90
54006;DHT22;39919;38.160;-122.260;2022-10-16T03:51:22;18.10;82.80
54006;DHT22;39919;38.160;-122.260;2022-10-16T03:53:50;18.10;82.70
54006;DHT22;39919;38.160;-122.260;2022-10-16T03:56:19;18.10;82.70
54006;DHT22;39919;38.160;-122.260;2022-10-16T03:58:47;18.10;82.60
54006;DHT22;39919;38.160;-122.260;2022-10-16T04:01:15;18.10;82.60
54006;DHT22;39919;38.160;-122.260;2022-10-16T04:03:43;18.10;82.60
54006;DHT22;39919;38.160;-122.260;2022-10-16T04:06:23;18.10;82.60
54006;DHT22;39919;38.160;-122.260;2022-10-16T04:08:54;18.10;82.40
54006;DHT22;39919;38.160;-122.260;2022-10-16T04:11:28;18.10;82.50
54006;DHT22;39919;38.160;-122.260;2022-10-16T04:14:02;18.10;82.60
54006;DHT22;39919;38.160;-122.260;2022-10-16T04:16:33;18.10;82.40
54006;DHT22;39919;38.160;-122.260;2022-10-16T04:19:01;18.10;83.00
54006;DHT22;39919;38.160;-122.260;2022-10-16T04:21:38;18.10;82.90
54006;DHT22;39919;38.160;-122.260;2022-10-16T04:26:57;18.10;83.10
54006;DHT22;39919;38.160;-122.260;2022-10-16T04:29:31;18.10;83.30
54006;DHT22;39919;38.160;-122.260;2022-10-16T04:32:02;18.10;83.20
54006;DHT22;39919;38.160;-122.260;2022-10-16T04:34:35;18.10;83.00
54006;DHT22;39919;38.160;-122.260;2022-10-16T04:37:10;18.10;82.90
54006;DHT22;39919;38.160;-122.260;2022-10-16T04:39:45;18.10;82.80
54006;DHT22;39919;38.160;-122.260;2022-10-16T04:42:16;18.10;82.60
54006;DHT22;39919;38.160;-122.260;2022-10-16T04:44:44;18.10;82.60
54006;DHT22;39919;38.160;-122.260;2022-10-16T04:47:13;18.10;83.20
54006;DHT22;39919;38.160;-122.260;2022-10-16T04:49:41;18.10;82.80
54006;DHT22;39919;38.160;-122.260;2022-10-16T04:52:10;18.10;83.30
54006;DHT22;39919;38.160;-122.260;2022-10-16T04:54:38;18.10;82.70
54006;DHT22;39919;38.160;-122.260;2022-10-16T04:57:07;18.10;82.90
54006;DHT22;39919;38.160;-122.260;2022-10-16T04:59:38;18.10;82.90
54006;DHT22;39919;38.160;-122.260;2022-10-16T05:02:07;18.10;82.90
54006;DHT22;39919;38.160;-122.260;2022-10-16T05:04:37;18.10;82.90
54006;DHT22;39919;38.160;-122.260;2022-10-16T05:07:15;18.10;82.90
54006;DHT22;39919;38.160;-122.260;2022-10-16T05:09:43;18.10;83.30
54006;DHT22;39919;38.160;-122.260;2022-10-16T05:12:12;18.10;83.20
54006;DHT22;39919;38.160;-122.260;2022-10-16T05:17:29;18.10;83.10
54006;DHT22;39919;38.160;-122.260;2022-10-16T05:20:03;18.10;83.10
54006;DHT22;39919;38.160;-122.260;2022-10-16T05:22:32;18.10;83.10
54006;DHT22;39919;38.160;-122.260;2022-10-16T05:25:00;18.10;83.50
54006;DHT22;39919;38.160;-122.260;2022-10-16T05:27:29;18.10;83.50
54006;DHT22;39919;38.160;-122.260;2022-10-16T05:30:00;18.10;83.40
54006;DHT22;39919;38.160;-122.260;2022-10-16T05:32:31;18.10;83.30
54006;DHT22;39919;38.160;-122.260;2022-10-16T05:34:59;18.10;83.30
54006;DHT22;39919;38.160;-122.260;2022-10-16T05:37:28;18.10;82.90
54006;DHT22;39919;38.160;-122.260;2022-10-16T05:39:56;18.10;82.90
54006;DHT22;39919;38.160;-122.260;2022-10-16T05:42:24;18.10;82.90
54006;DHT22;39919;38.160;-122.260;2022-10-16T05:44:52;18.10;82.90
54006;DHT22;39919;38.160;-122.260;2022-10-16T05:47:23;18.10;82.60
54006;DHT22;39919;38.160;-122.260;2022-10-16T05:50:02;18.00;82.30
54006;DHT22;39919;38.160;-122.260;2022-10-16T05:52:36;18.00;82.40
54006;DHT22;39919;38.160;-122.260;2022-10-16T05:55:04;18.00;82.70
54006;DHT22;39919;38.160;-122.260;2022-10-16T05:57:33;18.00;82.30
54006;DHT22;39919;38.160;-122.260;2022-10-16T06:00:01;18.00;82.20
54006;DHT22;39919;38.160;-122.260;2022-10-16T06:02:29;18.00;82.40
54006;DHT22;39919;38.160;-122.260;2022-10-16T06:04:57;18.00;82.40
54006;DHT22;39919;38.160;-122.260;2022-10-16T06:07:27;18.00;82.40
54006;DHT22;39919;38.160;-122.260;2022-10-16T06:09:58;18.00;82.60
54006;DHT22;39919;38.160;-122.260;2022-10-16T06:12:26;18.00;82.60
54006;DHT22;39919;38.160;-122.260;2022-10-16T06:14:55;18.00;82.40
54006;DHT22;39919;38.160;-122.260;2022-10-16T06:17:23;18.00;82.40
54006;DHT22;39919;38.160;-122.260;2022-10-16T06:19:54;18.00;82.50
54006;DHT22;39919;38.160;-122.260;2022-10-16T06:22:23;18.00;82.30
54006;DHT22;39919;38.160;-122.260;2022-10-16T06:24:53;18.00;82.70
54006;DHT22;39919;38.160;-122.260;2022-10-16T06:27:21;18.00;82.10
54006;DHT22;39919;38.160;-122.260;2022-10-16T06:29:49;18.00;82.40
54006;DHT22;39919;38.160;-122.260;2022-10-16T06:32:17;18.00;82.40
54006;DHT22;39919;38.160;-122.260;2022-10-16T06:34:47;18.00;82.30
54006;DHT22;39919;38.160;-122.260;2022-10-16T06:37:15;18.00;82.30
54006;DHT22;39919;38.160;-122.260;2022-10-16T06:39:44;18.00;82.40
54006;DHT22;39919;38.160;-122.260;2022-10-16T06:42:14;18.00;82.70
54006;DHT22;39919;38.160;-122.260;2022-10-16T06:44:42;18.00;82.40
54006;DHT22;39919;38.160;-122.260;2022-10-16T06:47:11;17.90;82.30
54006;DHT22;39919;38.160;-122.260;2022-10-16T06:49:41;18.00;82.40
54006;DHT22;39919;38.160;-122.260;2022-10-16T06:52:09;18.00;82.70
54006;DHT22;39919;38.160;-122.260;2022-10-16T06:54:38;18.00;82.90
54006;DHT22;39919;38.160;-122.260;2022-10-16T06:57:06;18.00;82.30
54006;DHT22;39919;38.160;-122.260;2022-10-16T06:59:36;18.00;82.10
54006;DHT22;39919;38.160;-122.260;2022-10-16T07:02:05;18.00;81.80
54006;DHT22;39919;38.160;-122.260;2022-10-16T07:04:34;18.00;81.80
54006;DHT22;39919;38.160;-122.260;2022-10-16T07:07:03;17.90;81.90
54006;DHT22;39919;38.160;-122.260;2022-10-16T07:09:31;17.90;81.90
54006;DHT22;39919;38.160;-122.260;2022-10-16T07:12:00;17.90;81.90
54006;DHT22;39919;38.160;-122.260;2022-10-16T07:14:32;17.90;81.90
54006;DHT22;39919;38.160;-122.260;2022-10-16T07:17:05;17.90;81.80
54006;DHT22;39919;38.160;-122.260;2022-10-16T07:19:33;17.90;81.80
54006;DHT22;39919;38.160;-122.260;2022-10-16T07:22:04;17.90;81.90
54006;DHT22;39919;38.160;-122.260;2022-10-16T07:24:32;17.90;81.70
54006;DHT22;39919;38.160;-122.260;2022-10-16T07:27:01;17.90;81.70
54006;DHT22;39919;38.160;-122.260;2022-10-16T07:29:29;17.90;81.70
54006;DHT22;39919;38.160;-122.260;2022-10-16T07:32:03;17.90;81.80
54006;DHT22;39919;38.160;-122.260;2022-10-16T07:34:33;17.90;82.00
54006;DHT22;39919;38.160;-122.260;2022-10-16T07:37:02;17.90;82.00
54006;DHT22;39919;38.160;-122.260;2022-10-16T07:39:30;17.90;82.20
54006;DHT22;39919;38.160;-122.260;2022-10-16T07:42:02;17.90;82.20
54006;DHT22;39919;38.160;-122.260;2022-10-16T07:44:31;17.90;82.20
54006;DHT22;39919;38.160;-122.260;2022-10-16T07:46:59;17.90;81.90
54006;DHT22;39919;38.160;-122.260;2022-10-16T07:49:30;17.90;81.90
54006;DHT22;39919;38.160;-122.260;2022-10-16T07:51:59;17.90;81.80
54006;DHT22;39919;38.160;-122.260;2022-10-16T07:54:27;17.90;81.60
54006;DHT22;39919;38.160;-122.260;2022-10-16T07:56:56;17.90;81.60
54006;DHT22;39919;38.160;-122.260;2022-10-16T07:59:25;17.90;81.70
54006;DHT22;39919;38.160;-122.260;2022-10-16T08:01:54;17.90;81.60
54006;DHT22;39919;38.160;-122.260;2022-10-16T08:04:22;17.90;81.90
54006;DHT22;39919;38.160;-122.260;2022-10-16T08:06:53;17.90;81.90
54006;DHT22;39919;38.160;-122.260;2022-10-16T08:09:22;17.90;81.60
54006;DHT22;39919;38.160;-122.260;2022-10-16T08:11:51;17.90;81.60
54006;DHT22;39919;38.160;-122.260;2022-10-16T08:14:20;17.90;81.60
54006;DHT22;39919;38.160;-122.260;2022-10-16T08:16:48;17.90;81.90
54006;DHT22;39919;38.160;-122.260;2022-10-16T08:19:16;17.90;82.00
54006;DHT22;39919;38.160;-122.260;2022-10-16T08:21:47;17.90;81.90
54006;DHT22;39919;38.160;-122.260;2022-10-16T08:24:17;17.80;82.00
54006;DHT22;39919;38.160;-122.260;2022-10-16T08:26:46;17.90;82.00
54006;DHT22;39919;38.160;-122.260;2022-10-16T08:29:15;17.90;82.10
54006;DHT22;39919;38.160;-122.260;2022-10-16T08:31:44;17.90;82.10
54006;DHT22;39919;38.160;-122.260;2022-10-16T08:34:12;17.80;81.90
54006;DHT22;39919;38.160;-122.260;2022-10-16T08:36:41;17.90;82.10
54006;DHT22;39919;38.160;-122.260;2022-10-16T08:39:09;17.90;82.00
54006;DHT22;39919;38.160;-122.260;2022-10-16T08:44:54;17.90;82.00
54006;DHT22;39919;38.160;-122.260;2022-10-16T08:47:25;17.90;82.10
54006;DHT22;39919;38.160;-122.260;2022-10-16T08:49:56;17.90;82.10
54006;DHT22;39919;38.160;-122.260;2022-10-16T08:52:27;17.80;82.10
54006;DHT22;39919;38.160;-122.260;2022-10-16T08:54:57;17.90;82.40
54006;DHT22;39919;38.160;-122.260;2022-10-16T08:57:26;17.80;82.30
54006;DHT22;39919;38.160;-122.260;2022-10-16T08:59:57;17.90;82.40
54006;DHT22;39919;38.160;-122.260;2022-10-16T09:02:28;17.90;83.00
54006;DHT22;39919;38.160;-122.260;2022-10-16T09:07:46;17.90;82.90
54006;DHT22;39919;38.160;-122.260;2022-10-16T09:10:20;17.90;82.90
54006;DHT22;39919;38.160;-122.260;2022-10-16T09:12:53;17.90;83.00
54006;DHT22;39919;38.160;-122.260;2022-10-16T09:15:27;17.90;83.10
54006;DHT22;39919;38.160;-122.260;2022-10-16T09:18:02;17.80;82.80
54006;DHT22;39919;38.160;-122.260;2022-10-16T09:20:38;17.90;82.70
54006;DHT22;39919;38.160;-122.260;2022-10-16T09:23:14;17.80;82.50
54006;DHT22;39919;38.160;-122.260;2022-10-16T09:25:44;17.90;82.90
54006;DHT22;39919;38.160;-122.260;2022-10-16T09:28:13;17.90;83.70
54006;DHT22;39919;38.160;-122.260;2022-10-16T09:30:44;17.90;84.10
54006;DHT22;39919;38.160;-122.260;2022-10-16T09:33:14;17.90;83.20
54006;DHT22;39919;38.160;-122.260;2022-10-16T09:35:43;17.80;83.20
54006;DHT22;39919;38.160;-122.260;2022-10-16T09:38:20;17.90;83.30
54006;DHT22;39919;38.160;-122.260;2022-10-16T09:40:49;17.80;83.70
54006;DHT22;39919;38.160;-122.260;2022-10-16T09:43:20;17.90;83.90
54006;DHT22;39919;38.160;-122.260;2022-10-16T09:46:00;17.90;83.60
54006;DHT22;39919;38.160;-122.260;2022-10-16T09:48:31;17.90;83.80
54006;DHT22;39919;38.160;-122.260;2022-10-16T09:51:02;17.80;83.30
54006;DHT22;39919;38.160;-122.260;2022-10-16T09:53:40;17.90;83.40
54006;DHT22;39919;38.160;-122.260;2022-10-16T09:56:09;17.80;83.50
54006;DHT22;39919;38.160;-122.260;2022-10-16T09:58:42;17.80;83.60
54006;DHT22;39919;38.160;-122.260;2022-10-16T10:01:14;17.90;84.00
54006;DHT22;39919;38.160;-122.260;2022-10-16T10:03:43;17.90;84.10
54006;DHT22;39919;38.160;-122.260;2022-10-16T10:06:19;17.90;84.40
54006;DHT22;39919;38.160;-122.260;2022-10-16T10:08:55;17.90;84.30
54006;DHT22;39919;38.160;-122.260;2022-10-16T10:11:39;17.90;84.00
54006;DHT22;39919;38.160;-122.260;2022-10-16T10:14:10;17.90;83.70
54006;DHT22;39919;38.160;-122.260;2022-10-16T10:16:47;17.80;83.50
54006;DHT22;39919;38.160;-122.260;2022-10-16T10:19:16;17.90;83.40
54006;DHT22;39919;38.160;-122.260;2022-10-16T10:21:44;17.80;83.20
54006;DHT22;39919;38.160;-122.260;2022-10-16T10:24:16;17.90;83.20
54006;DHT22;39919;38.160;-122.260;2022-10-16T10:26:47;17.90;83.10
54006;DHT22;39919;38.160;-122.260;2022-10-16T10:29:18;17.90;82.80
54006;DHT22;39919;38.160;-122.260;2022-10-16T10:32:05;17.90;82.80
54006;DHT22;39919;38.160;-122.260;2022-10-16T10:34:40;17.90;82.80
54006;DHT22;39919;38.160;-122.260;2022-10-16T10:37:20;17.90;82.80
54006;DHT22;39919;38.160;-122.260;2022-10-16T10:39:52;17.90;83.00
54006;DHT22;39919;38.160;-122.260;2022-10-16T10:42:24;17.80;82.90
54006;DHT22;39919;38.160;-122.260;2022-10-16T10:44:59;17.80;82.70
54006;DHT22;39919;38.160;-122.260;2022-10-16T10:47:34;17.80;82.50
54006;DHT22;39919;38.160;-122.260;2022-10-16T10:50:08;17.80;82.50
54006;DHT22;39919;38.160;-122.260;2022-10-16T10:52:41;17.80;82.50
54006;DHT22;39919;38.160;-122.260;2022-10-16T10:55:14;17.80;82.50
54006;DHT22;39919;38.160;-122.260;2022-10-16T10:57:48;17.90;82.70
54006;DHT22;39919;38.160;-122.260;2022-10-16T11:00:20;17.80;82.60
54006;DHT22;39919;38.160;-122.260;2022-10-16T11:02:52;17.90;82.70
54006;DHT22;39919;38.160;-122.260;2022-10-16T11:05:28;17.90;82.50
54006;DHT22;39919;38.160;-122.260;2022-10-16T11:07:59;17.90;82.40
54006;DHT22;39919;38.160;-122.260;2022-10-16T11:10:30;17.80;82.20
54006;DHT22;39919;38.160;-122.260;2022-10-16T11:13:03;17.90;82.30
54006;DHT22;39919;38.160;-122.260;2022-10-16T11:15:37;17.90;81.90
54006;DHT22;39919;38.160;-122.260;2022-10-16T11:18:14;17.90;81.70
54006;DHT22;39919;38.160;-122.260;2022-10-16T11:20:45;17.90;81.60
54006;DHT22;39919;38.160;-122.260;2022-10-16T11:23:16;17.80;81.50
54006;DHT22;39919;38.160;-122.260;2022-10-16T11:25:46;17.80;81.60
54006;DHT22;39919;38.160;-122.260;2022-10-16T11:28:16;17.90;81.80
54006;DHT22;39919;38.160;-122.260;2022-10-16T11:30:48;17.90;82.20
54006;DHT22;39919;38.160;-122.260;2022-10-16T11:33:24;17.90;82.80
54006;DHT22;39919;38.160;-122.260;2022-10-16T11:35:54;17.90;83.20
54006;DHT22;39919;38.160;-122.260;2022-10-16T11:38:25;17.90;83.50
54006;DHT22;39919;38.160;-122.260;2022-10-16T11:40:58;17.90;83.80
54006;DHT22;39919;38.160;-122.260;2022-10-16T11:43:28;17.80;83.50
54006;DHT22;39919;38.160;-122.260;2022-10-16T11:45:58;17.80;83.30
54006;DHT22;39919;38.160;-122.260;2022-10-16T11:48:35;17.80;83.50
54006;DHT22;39919;38.160;-122.260;2022-10-16T11:51:08;17.80;83.40
54006;DHT22;39919;38.160;-122.260;2022-10-16T11:53:46;17.90;83.40
54006;DHT22;39919;38.160;-122.260;2022-10-16T11:56:19;17.80;83.10
54006;DHT22;39919;38.160;-122.260;2022-10-16T11:58:51;17.90;82.80
54006;DHT22;39919;38.160;-122.260;2022-10-16T12:01:24;17.90;82.70
54006;DHT22;39919;38.160;-122.260;2022-10-16T12:04:01;17.90;82.50
54006;DHT22;39919;38.160;-122.260;2022-10-16T12:06:34;17.80;82.30
54006;DHT22;39919;38.160;-122.260;2022-10-16T12:09:04;17.90;82.30
54006;DHT22;39919;38.160;-122.260;2022-10-16T12:11:34;17.80;82.30
54006;DHT22;39919;38.160;-122.260;2022-10-16T12:14:07;17.80;82.30
54006;DHT22;39919;38.160;-122.260;2022-10-16T12:16:38;17.90;82.10
54006;DHT22;39919;38.160;-122.260;2022-10-16T12:19:14;17.90;82.00
54006;DHT22;39919;38.160;-122.260;2022-10-16T12:21:43;17.80;82.00
54006;DHT22;39919;38.160;-122.260;2022-10-16T12:24:20;17.80;82.00
54006;DHT22;39919;38.160;-122.260;2022-10-16T12:26:51;17.90;82.10
54006;DHT22;39919;38.160;-122.260;2022-10-16T12:29:23;17.80;82.00
54006;DHT22;39919;38.160;-122.260;2022-10-16T12:31:53;17.80;82.10
54006;DHT22;39919;38.160;-122.260;2022-10-16T12:34:26;17.80;82.20
54006;DHT22;39919;38.160;-122.260;2022-10-16T12:37:07;17.90;82.30
54006;DHT22;39919;38.160;-122.260;2022-10-16T12:39:49;17.80;82.20
54006;DHT22;39919;38.160;-122.260;2022-10-16T12:42:32;17.80;82.10
54006;DHT22;39919;38.160;-122.260;2022-10-16T12:45:21;17.80;82.00
54006;DHT22;39919;38.160;-122.260;2022-10-16T12:47:57;17.80;82.10
54006;DHT22;39919;38.160;-122.260;2022-10-16T12:50:29;17.80;82.30
54006;DHT22;39919;38.160;-122.260;2022-10-16T12:52:58;17.80;82.20
54006;DHT22;39919;38.160;-122.260;2022-10-16T12:55:30;17.90;82.30
54006;DHT22;39919;38.160;-122.260;2022-10-16T12:58:06;17.80;82.20
54006;DHT22;39919;38.160;-122.260;2022-10-16T13:00:40;17.80;82.20
54006;DHT22;39919;38.160;-122.260;2022-10-16T13:06:04;17.80;81.80
54006;DHT22;39919;38.160;-122.260;2022-10-16T13:08:42;17.80;81.60
54006;DHT22;39919;38.160;-122.260;2022-10-16T13:11:12;17.80;81.50
54006;DHT22;39919;38.160;-122.260;2022-10-16T13:13:49;17.80;81.30
54006;DHT22;39919;38.160;-122.260;2022-10-16T13:16:27;17.80;81.30
54006;DHT22;39919;38.160;-122.260;2022-10-16T13:19:01;17.80;81.30
54006;DHT22;39919;38.160;-122.260;2022-10-16T13:21:40;17.80;81.40
54006;DHT22;39919;38.160;-122.260;2022-10-16T13:24:17;17.80;81.20
54006;DHT22;39919;38.160;-122.260;2022-10-16T13:26:51;17.80;81.30
54006;DHT22;39919;38.160;-122.260;2022-10-16T13:29:21;17.80;81.40
54006;DHT22;39919;38.160;-122.260;2022-10-16T13:31:49;17.80;81.40
54006;DHT22;39919;38.160;-122.260;2022-10-16T13:34:17;17.80;81.30
54006;DHT22;39919;38.160;-122.260;2022-10-16T13:36:49;17.80;81.40
54006;DHT22;39919;38.160;-122.260;2022-10-16T13:39:21;17.80;81.30
54006;DHT22;39919;38.160;-122.260;2022-10-16T13:41:57;17.80;81.20
54006;DHT22;39919;38.160;-122.260;2022-10-16T13:44:26;17.80;81.10
54006;DHT22;39919;38.160;-122.260;2022-10-16T13:46:58;17.80;80.90
54006;DHT22;39919;38.160;-122.260;2022-10-16T13:49:28;17.70;80.70
54006;DHT22;39919;38.160;-122.260;2022-10-16T13:51:59;17.70;80.50
54006;DHT22;39919;38.160;-122.260;2022-10-16T13:54:28;17.70;80.40
54006;DHT22;39919;38.160;-122.260;2022-10-16T13:57:04;17.70;80.30
54006;DHT22;39919;38.160;-122.260;2022-10-16T13:59:33;17.70;80.00
54006;DHT22;39919;38.160;-122.260;2022-10-16T14:02:05;17.70;79.50
54006;DHT22;39919;38.160;-122.260;2022-10-16T14:04:37;17.70;79.50
54006;DHT22;39919;38.160;-122.260;2022-10-16T14:07:14;17.70;79.50
54006;DHT22;39919;38.160;-122.260;2022-10-16T14:09:42;17.70;79.70
54006;DHT22;39919;38.160;-122.260;2022-10-16T14:12:15;17.70;79.70
54006;DHT22;39919;38.160;-122.260;2022-10-16T14:14:44;17.70;79.90
54006;DHT22;39919;38.160;-122.260;2022-10-16T14:17:13;17.70;79.90
54006;DHT22;39919;38.160;-122.260;2022-10-16T14:19:45;17.70;79.90
54006;DHT22;39919;38.160;-122.260;2022-10-16T14:22:24;17.70;80.00
54006;DHT22;39919;38.160;-122.260;2022-10-16T14:24:54;17.70;79.90
54006;DHT22;39919;38.160;-122.260;2022-10-16T14:27:28;17.70;80.00
54006;DHT22;39919;38.160;-122.260;2022-10-16T14:30:14;17.70;80.00
54006;DHT22;39919;38.160;-122.260;2022-10-16T14:32:52;17.70;80.00
54006;DHT22;39919;38.160;-122.260;2022-10-16T14:35:25;17.70;79.90
54006;DHT22;39919;38.160;-122.260;2022-10-16T14:37:57;17.70;79.90
54006;DHT22;39919;38.160;-122.260;2022-10-16T14:40:26;17.70;79.80
54006;DHT22;39919;38.160;-122.260;2022-10-16T14:42:55;17.70;79.70
54006;DHT22;39919;38.160;-122.260;2022-10-16T14:45:24;17.70;79.60
54006;DHT22;39919;38.160;-122.260;2022-10-16T14:47:54;17.70;79.50
54006;DHT22;39919;38.160;-122.260;2022-10-16T14:50:24;17.70;79.40
54006;DHT22;39919;38.160;-122.260;2022-10-16T14:52:53;17.70;79.40
54006;DHT22;39919;38.160;-122.260;2022-10-16T14:55:23;17.70;79.40
54006;DHT22;39919;38.160;-122.260;2022-10-16T14:57:52;17.80;79.40
54006;DHT22;39919;38.160;-122.260;2022-10-16T15:00:21;17.70;79.40
54006;DHT22;39919;38.160;-122.260;2022-10-16T15:02:50;17.80;79.40
54006;DHT22;39919;38.160;-122.260;2022-10-16T15:05:19;17.80;79.30
54006;DHT22;39919;38.160;-122.260;2022-10-16T15:07:49;17.80;79.10
54006;DHT22;39919;38.160;-122.260;2022-10-16T15:10:19;17.80;79.10
54006;DHT22;39919;38.160;-122.260;2022-10-16T15:12:49;17.80;79.10
54006;DHT22;39919;38.160;-122.260;2022-10-16T15:18:00;17.80;79.00
54006;DHT22;39919;38.160;-122.260;2022-10-16T15:20:29;17.90;78.90
54006;DHT22;39919;38.160;-122.260;2022-10-16T15:23:00;17.90;78.70
54006;DHT22;39919;38.160;-122.260;2022-10-16T15:25:34;17.90;78.60
54006;DHT22;39919;38.160;-122.260;2022-10-16T15:28:04;17.90;78.60
54006;DHT22;39919;38.160;-122.260;2022-10-16T15:30:33;17.90;78.60
54006;DHT22;39919;38.160;-122.260;2022-10-16T15:33:02;18.00;78.70
54006;DHT22;39919;38.160;-122.260;2022-10-16T15:35:30;18.00;78.70